createdAt,value
2019-05-20T00:00:17.287Z,15.60
2019-05-20T00:05:22.045Z,15.50
2019-05-20T00:10:26.816Z,15.40
2019-05-20T00:15:32.835Z,15.30
2019-05-20T00:20:36.211Z,15.20
2019-05-20T00:25:39.742Z,15.20
2019-05-20T00:30:43.106Z,15.10
2019-05-20T00:35:48.515Z,15.00
2019-05-20T00:40:53.317Z,15.00
2019-05-20T00:45:58.287Z,14.90
2019-05-20T00:51:04.264Z,14.80
2019-05-20T00:56:09.092Z,14.80
2019-05-20T01:01:13.245Z,14.60
2019-05-20T01:06:17.206Z,14.80
2019-05-20T01:11:21.488Z,14.60
2019-05-20T01:16:25.635Z,14.50
2019-05-20T01:21:29.588Z,14.50
2019-05-20T01:26:33.763Z,14.40
2019-05-20T01:31:37.731Z,14.30
2019-05-20T01:36:41.923Z,14.30
2019-05-20T01:41:46.937Z,14.30
2019-05-20T01:46:51.842Z,14.30
2019-05-20T01:51:55.960Z,14.20
2019-05-20T01:57:00.111Z,14.10
2019-05-20T02:02:04.351Z,14.10
2019-05-20T02:07:08.594Z,14.10
2019-05-20T02:12:12.829Z,14.00
2019-05-20T02:17:16.721Z,14.00
2019-05-20T02:22:21.701Z,14.00
2019-05-20T02:27:26.557Z,14.00
2019-05-20T02:32:31.840Z,13.90
2019-05-20T02:37:37.900Z,13.80
2019-05-20T02:42:42.914Z,13.80
2019-05-20T02:47:47.992Z,13.70
2019-05-20T02:52:54.206Z,13.70
2019-05-20T02:57:59.077Z,13.70
2019-05-20T03:03:04.010Z,13.60
2019-05-20T03:08:09.034Z,13.60
2019-05-20T03:13:13.931Z,13.60
2019-05-20T03:18:20.203Z,13.60
2019-05-20T03:23:25.171Z,13.60
2019-05-20T03:28:30.077Z,13.40
2019-05-20T03:33:35.165Z,13.50
2019-05-20T03:38:39.975Z,13.40
2019-05-20T03:43:44.851Z,13.40
2019-05-20T03:48:49.651Z,13.30
2019-05-20T03:53:55.524Z,13.30
2019-05-20T03:59:00.559Z,13.20
2019-05-20T04:04:05.825Z,13.20
2019-05-20T04:09:10.936Z,13.20
2019-05-20T04:14:16.465Z,13.10
2019-05-20T04:19:21.673Z,13.20
2019-05-20T04:24:26.582Z,13.20
2019-05-20T04:29:31.608Z,13.20
2019-05-20T04:34:36.880Z,13.10
2019-05-20T04:39:41.758Z,13.30
2019-05-20T04:44:46.999Z,13.30
2019-05-20T04:49:51.881Z,13.30
2019-05-20T04:54:58.045Z,13.40
2019-05-20T05:00:03.233Z,13.40
2019-05-20T05:05:08.974Z,13.60
2019-05-20T05:10:14.371Z,13.60
2019-05-20T05:15:19.831Z,13.70
2019-05-20T05:20:24.963Z,13.90
2019-05-20T05:25:30.415Z,13.80
2019-05-20T05:30:35.817Z,13.90
2019-05-20T05:35:52.291Z,13.90
2019-05-20T05:40:46.257Z,14.00
2019-05-20T05:45:50.656Z,14.10
2019-05-20T05:50:54.488Z,14.30
2019-05-20T05:55:59.006Z,14.40
2019-05-20T06:01:02.699Z,14.50
2019-05-20T06:06:13.059Z,14.60
2019-05-20T06:11:15.673Z,14.60
2019-05-20T06:16:35.273Z,14.80
2019-05-20T06:21:26.451Z,14.90
2019-05-20T06:26:30.777Z,14.90
2019-05-20T06:31:35.293Z,15.00
2019-05-20T06:36:45.444Z,15.00
2019-05-20T06:41:50.383Z,15.20
2019-05-20T06:46:54.570Z,15.30
2019-05-20T06:51:58.992Z,15.60
2019-05-20T06:57:03.623Z,15.70
2019-05-20T07:02:08.823Z,15.80
2019-05-20T07:07:21.042Z,16.00
2019-05-20T07:12:21.861Z,16.20
2019-05-20T07:23:52.315Z,16.60
2019-05-20T07:28:55.691Z,17.00
2019-05-20T07:34:01.742Z,17.10
2019-05-20T07:39:07.202Z,17.30
2019-05-20T07:44:11.419Z,17.40
2019-05-20T07:49:17.018Z,17.40
2019-05-20T07:54:23.832Z,17.50
2019-05-20T07:59:32.215Z,17.50
2019-05-20T08:04:37.480Z,17.60
2019-05-20T08:09:46.019Z,17.60
2019-05-20T08:14:49.767Z,17.70
2019-05-20T08:19:55.109Z,17.90
2019-05-20T08:25:00.236Z,18.10
2019-05-20T08:30:07.537Z,18.10
2019-05-20T08:35:12.983Z,18.10
2019-05-20T08:40:18.145Z,18.20
2019-05-20T08:45:23.209Z,18.30
2019-05-20T08:50:28.289Z,18.50
2019-05-20T08:55:33.247Z,18.60
2019-05-20T09:00:37.866Z,18.70
2019-05-20T09:05:43.643Z,18.90
2019-05-20T09:10:47.161Z,19.00
2019-05-20T09:15:51.919Z,18.90
2019-05-20T09:20:57.626Z,18.90
2019-05-20T09:26:04.228Z,18.90
2019-05-20T09:31:09.572Z,18.70
2019-05-20T09:36:15.108Z,18.60
2019-05-20T09:41:19.705Z,18.60
2019-05-20T09:46:24.019Z,18.70
2019-05-20T09:51:28.585Z,18.80
2019-05-20T09:56:32.917Z,18.90
2019-05-20T10:01:39.898Z,19.00
2019-05-20T10:06:43.484Z,19.20
2019-05-20T10:11:47.985Z,19.50
2019-05-20T10:16:52.538Z,19.80
2019-05-20T10:21:57.449Z,19.90
2019-05-20T10:27:02.801Z,20.00
2019-05-20T10:32:07.968Z,19.80
2019-05-20T10:37:13.780Z,20.00
2019-05-20T10:42:18.319Z,20.10
2019-05-20T10:47:22.517Z,20.10
2019-05-20T10:52:26.780Z,20.10
2019-05-20T10:57:31.605Z,20.20
2019-05-20T11:02:37.998Z,20.10
2019-05-20T11:07:44.212Z,20.00
2019-05-20T11:12:50.055Z,20.10
2019-05-20T11:17:56.798Z,19.90
2019-05-20T11:23:02.330Z,19.90
2019-05-20T11:28:07.086Z,19.90
2019-05-20T11:33:12.858Z,20.00
2019-05-20T11:38:18.624Z,19.90
2019-05-20T11:43:23.756Z,19.90
2019-05-20T11:48:28.629Z,19.80
2019-05-20T11:53:33.851Z,19.80
2019-05-20T11:58:39.222Z,19.60
2019-05-20T12:03:45.388Z,19.50
2019-05-20T12:08:50.305Z,19.50
2019-05-20T12:13:55.804Z,19.50
2019-05-20T12:19:00.983Z,19.30
2019-05-20T12:24:08.082Z,19.30
2019-05-20T12:29:13.274Z,19.20
2019-05-20T12:34:18.622Z,19.20
2019-05-20T12:39:23.985Z,19.00
2019-05-20T12:44:29.324Z,18.90
2019-05-20T12:49:35.338Z,18.90
2019-05-20T12:54:40.735Z,18.80
2019-05-20T12:59:47.321Z,18.80
2019-05-20T13:04:53.148Z,18.90
2019-05-20T13:10:02.578Z,18.80
2019-05-20T13:15:05.964Z,18.70
2019-05-20T13:20:10.900Z,18.70
2019-05-20T13:25:16.682Z,18.60
2019-05-20T13:30:23.552Z,18.60
2019-05-20T13:35:28.947Z,18.60
2019-05-20T13:40:45.929Z,18.60
2019-05-20T13:45:39.027Z,18.70
2019-05-20T13:50:44.296Z,18.60
2019-05-20T13:55:50.537Z,18.80
2019-05-20T14:00:56.485Z,18.80
2019-05-20T14:06:02.776Z,18.80
2019-05-20T14:11:08.087Z,18.70
2019-05-20T14:16:13.085Z,18.90
2019-05-20T14:21:17.637Z,18.70
2019-05-20T14:26:21.735Z,18.70
2019-05-20T14:31:25.796Z,18.60
2019-05-20T14:36:39.498Z,18.50
2019-05-20T14:41:37.309Z,18.40
2019-05-20T14:46:42.633Z,18.40
2019-05-20T14:51:47.458Z,18.40
2019-05-20T14:56:51.737Z,18.30
2019-05-20T15:01:55.948Z,18.20
2019-05-20T15:07:02.074Z,18.20
2019-05-20T15:12:08.090Z,18.10
2019-05-20T15:17:13.508Z,18.00
2019-05-20T15:22:18.288Z,17.90
2019-05-20T15:27:22.738Z,18.00
2019-05-20T15:32:27.186Z,17.80
2019-05-20T15:37:31.491Z,17.70
2019-05-20T15:42:36.877Z,17.80
2019-05-20T15:47:42.454Z,17.70
2019-05-20T15:52:47.663Z,17.70
2019-05-20T15:57:52.782Z,17.70
2019-05-20T16:02:58.848Z,17.70
2019-05-20T16:08:04.689Z,17.60
2019-05-20T16:13:10.034Z,17.70
2019-05-20T16:18:15.838Z,17.60
2019-05-20T16:23:21.123Z,17.50
2019-05-20T16:28:26.779Z,17.40
2019-05-20T16:33:32.094Z,17.20
2019-05-20T16:38:38.645Z,17.40
2019-05-20T16:43:43.790Z,17.40
2019-05-20T16:48:49.644Z,17.10
2019-05-20T16:53:55.411Z,17.30
2019-05-20T16:59:00.732Z,17.30
2019-05-20T17:04:06.089Z,17.10
2019-05-20T17:09:12.191Z,17.00
2019-05-20T17:14:17.423Z,17.00
2019-05-20T17:19:22.556Z,17.00
2019-05-20T17:24:27.508Z,17.00
2019-05-20T17:29:33.337Z,17.00
2019-05-20T17:34:38.607Z,16.90
2019-05-20T17:39:43.624Z,16.90
2019-05-20T17:44:48.650Z,16.90
2019-05-20T17:49:53.808Z,16.80
2019-05-20T17:54:59.245Z,16.70
2019-05-20T18:00:04.946Z,16.80
2019-05-20T18:05:10.478Z,16.70
2019-05-20T18:10:19.168Z,16.70
2019-05-20T18:15:24.627Z,16.60
2019-05-20T18:20:30.553Z,16.50
2019-05-20T18:25:35.708Z,16.60
2019-05-20T18:30:40.926Z,16.60
2019-05-20T18:35:45.299Z,16.50
2019-05-20T18:40:49.427Z,16.50
2019-05-20T18:45:54.930Z,16.50
2019-05-20T18:50:59.391Z,16.50
2019-05-20T18:56:04.083Z,16.50
2019-05-20T19:01:08.508Z,16.40
2019-05-20T19:06:13.776Z,16.50
2019-05-20T19:11:19.285Z,16.50
2019-05-20T19:16:24.582Z,16.40
2019-05-20T19:21:28.833Z,16.30
2019-05-20T19:26:33.430Z,16.30
2019-05-20T19:31:39.103Z,16.20
2019-05-20T19:36:43.448Z,16.20
2019-05-20T19:41:48.186Z,16.20
2019-05-20T19:46:53.263Z,16.20
2019-05-20T19:51:58.042Z,16.20
2019-05-20T19:57:03.151Z,16.30
2019-05-20T20:02:16.846Z,16.30
2019-05-20T20:07:15.719Z,16.20
2019-05-20T20:12:22.720Z,16.20
2019-05-20T20:17:28.426Z,16.10
2019-05-20T20:22:33.434Z,16.10
2019-05-20T20:27:38.872Z,16.10
2019-05-20T20:32:44.257Z,16.10
2019-05-20T20:37:49.270Z,16.10
2019-05-20T20:42:54.282Z,16.10
2019-05-20T20:47:58.543Z,16.00
2019-05-20T20:53:03.671Z,16.00
2019-05-20T20:58:08.662Z,16.00
2019-05-20T21:03:13.863Z,16.00
2019-05-20T21:08:19.051Z,16.00
2019-05-20T21:13:25.223Z,15.90
2019-05-20T21:18:30.190Z,15.80
2019-05-20T21:23:38.069Z,15.70
2019-05-20T21:28:43.204Z,15.70
2019-05-20T21:33:48.365Z,15.70
2019-05-20T21:38:53.735Z,15.70
2019-05-20T21:43:58.920Z,15.60
2019-05-20T21:49:05.284Z,15.70
2019-05-20T21:54:10.446Z,15.60
2019-05-20T21:59:15.288Z,15.50
2019-05-20T22:04:20.178Z,15.50
2019-05-20T22:09:25.313Z,15.50
2019-05-20T22:14:30.700Z,15.50
2019-05-20T22:19:36.292Z,15.50
2019-05-20T22:24:41.347Z,15.40
2019-05-20T22:29:46.311Z,15.40
2019-05-20T22:34:53.507Z,15.40
2019-05-20T22:39:58.939Z,15.50
2019-05-20T22:45:03.964Z,15.40
2019-05-20T22:50:09.609Z,15.50
2019-05-20T22:55:34.810Z,15.40
2019-05-20T23:00:39.757Z,15.40
2019-05-20T23:05:44.558Z,15.30
2019-05-20T23:10:50.953Z,15.30
2019-05-20T23:15:55.804Z,15.40
2019-05-20T23:21:00.076Z,15.40
2019-05-20T23:26:04.195Z,15.30
2019-05-20T23:31:08.327Z,15.40
2019-05-20T23:36:12.084Z,15.40
2019-05-20T23:41:15.417Z,15.30
2019-05-20T23:46:18.931Z,15.30
2019-05-20T23:51:22.311Z,15.30
2019-05-20T23:56:26.644Z,15.30
